createdAt,value
2018-04-27T00:00:18.374Z,8.30
2018-04-27T00:02:45.907Z,8.30
2018-04-27T00:05:13.480Z,8.40
2018-04-27T00:07:41.034Z,8.40
2018-04-27T00:10:08.614Z,8.30
2018-04-27T00:12:36.177Z,8.20
2018-04-27T00:15:03.730Z,8.20
2018-04-27T00:17:31.243Z,8.30
2018-04-27T00:19:58.823Z,8.40
2018-04-27T00:22:26.381Z,8.30
2018-04-27T00:24:53.923Z,8.40
2018-04-27T00:27:21.513Z,8.50
2018-04-27T00:29:49.087Z,8.50
2018-04-27T00:32:16.634Z,8.60
2018-04-27T00:34:44.194Z,8.50
2018-04-27T00:37:11.720Z,8.50
2018-04-27T00:39:39.275Z,8.50
2018-04-27T00:42:06.802Z,8.50
2018-04-27T00:44:35.134Z,8.40
2018-04-27T00:47:02.659Z,8.40
2018-04-27T00:49:30.213Z,8.30
2018-04-27T00:51:57.766Z,8.20
2018-04-27T00:54:26.116Z,8.30
2018-04-27T00:56:53.639Z,8.30
2018-04-27T00:59:21.173Z,8.30
2018-04-27T01:01:49.491Z,8.20
2018-04-27T01:04:17.045Z,8.20
2018-04-27T01:06:44.590Z,8.20
2018-04-27T01:09:12.113Z,8.20
2018-04-27T01:11:40.470Z,8.10
2018-04-27T01:14:07.995Z,8.10
2018-04-27T01:16:35.584Z,8.10
2018-04-27T01:19:03.093Z,8.10
2018-04-27T01:21:30.664Z,8.10
2018-04-27T01:23:58.230Z,8.00
2018-04-27T01:26:25.750Z,8.00
2018-04-27T01:28:54.063Z,7.90
2018-04-27T01:31:21.614Z,7.90
2018-04-27T01:33:49.162Z,7.80
2018-04-27T01:36:16.690Z,7.80
2018-04-27T01:38:44.221Z,7.70
2018-04-27T01:41:11.779Z,7.70
2018-04-27T01:43:39.326Z,7.70
2018-04-27T01:46:06.896Z,7.70
2018-04-27T01:48:34.473Z,7.50
2018-04-27T01:51:02.033Z,7.50
2018-04-27T01:53:29.598Z,7.50
2018-04-27T01:55:57.146Z,7.40
2018-04-27T01:58:24.672Z,7.40
2018-04-27T02:00:52.222Z,7.30
2018-04-27T02:03:19.782Z,7.30
2018-04-27T02:05:47.355Z,7.30
2018-04-27T02:08:14.887Z,7.30
2018-04-27T02:10:42.434Z,7.20
2018-04-27T02:13:10.700Z,7.20
2018-04-27T02:15:38.977Z,7.20
2018-04-27T02:18:06.526Z,7.20
2018-04-27T02:20:34.043Z,7.10
2018-04-27T02:23:01.565Z,7.00
2018-04-27T02:25:29.859Z,7.00
2018-04-27T02:27:57.396Z,7.00
2018-04-27T02:30:25.666Z,7.00
2018-04-27T02:32:53.185Z,7.00
2018-04-27T02:35:20.691Z,7.00
2018-04-27T02:37:49.012Z,7.00
2018-04-27T02:40:16.548Z,6.90
2018-04-27T02:42:44.101Z,7.00
2018-04-27T02:45:11.601Z,7.00
2018-04-27T02:47:39.118Z,7.00
2018-04-27T02:50:06.638Z,7.00
2018-04-27T02:52:34.165Z,6.90
2018-04-27T02:55:01.681Z,6.90
2018-04-27T02:57:29.969Z,6.90
2018-04-27T02:59:58.266Z,6.90
2018-04-27T03:02:25.800Z,6.80
2018-04-27T03:04:53.305Z,6.80
2018-04-27T03:07:20.824Z,6.80
2018-04-27T03:09:48.350Z,6.80
2018-04-27T03:12:15.872Z,6.70
2018-04-27T03:14:43.376Z,6.70
2018-04-27T03:17:11.706Z,6.60
2018-04-27T03:19:39.222Z,6.60
2018-04-27T03:22:07.513Z,6.50
2018-04-27T03:24:35.778Z,6.50
2018-04-27T03:27:04.070Z,6.50
2018-04-27T03:29:31.618Z,6.50
2018-04-27T03:31:59.122Z,6.40
2018-04-27T03:34:26.751Z,6.30
2018-04-27T03:36:54.184Z,6.30
2018-04-27T03:39:21.700Z,6.20
2018-04-27T03:41:49.249Z,6.20
2018-04-27T03:44:16.742Z,6.10
2018-04-27T03:46:44.247Z,6.10
2018-04-27T03:49:11.762Z,6.10
2018-04-27T03:51:39.273Z,6.10
2018-04-27T03:54:06.807Z,6.10
2018-04-27T03:56:35.093Z,6.10
2018-04-27T03:59:02.610Z,6.10
2018-04-27T04:01:42.123Z,6.10
2018-04-27T04:04:21.502Z,6.10
2018-04-27T04:06:49.033Z,6.10
2018-04-27T04:09:16.541Z,6.10
2018-04-27T04:11:44.854Z,6.00
2018-04-27T04:14:12.381Z,6.00
2018-04-27T04:16:39.905Z,6.10
2018-04-27T04:19:07.418Z,6.00
2018-04-27T04:21:34.938Z,6.00
2018-04-27T04:24:03.226Z,6.00
2018-04-27T04:26:31.513Z,5.90
2018-04-27T04:28:59.031Z,5.90
2018-04-27T04:31:27.321Z,6.00
2018-04-27T04:33:55.712Z,6.00
2018-04-27T04:36:23.984Z,6.00
2018-04-27T04:38:51.484Z,6.00
2018-04-27T04:41:19.022Z,6.00
2018-04-27T04:43:46.537Z,6.10
2018-04-27T04:46:14.067Z,6.10
2018-04-27T04:48:41.585Z,6.10
2018-04-27T04:51:09.875Z,6.20
2018-04-27T04:53:37.395Z,6.20
2018-04-27T04:56:04.928Z,6.30
2018-04-27T04:58:32.450Z,6.30
2018-04-27T05:00:59.952Z,6.20
2018-04-27T05:03:27.469Z,6.30
2018-04-27T05:05:54.979Z,6.30
2018-04-27T05:08:22.573Z,6.30
2018-04-27T05:10:50.135Z,6.40
2018-04-27T05:13:17.610Z,6.50
2018-04-27T05:15:45.127Z,6.60
2018-04-27T05:18:13.456Z,6.70
2018-04-27T05:20:41.003Z,6.80
2018-04-27T05:23:08.545Z,6.90
2018-04-27T05:25:36.813Z,7.10
2018-04-27T05:28:05.085Z,7.20
2018-04-27T05:30:33.442Z,7.30
2018-04-27T05:33:04.771Z,7.20
2018-04-27T05:35:32.318Z,7.40
2018-04-27T05:37:59.839Z,7.40
2018-04-27T05:40:28.093Z,7.60
2018-04-27T05:42:55.630Z,7.50
2018-04-27T05:45:23.137Z,7.60
2018-04-27T05:47:50.663Z,7.70
2018-04-27T05:50:18.187Z,7.70
2018-04-27T05:52:45.695Z,7.80
2018-04-27T05:55:14.005Z,7.90
2018-04-27T05:57:41.513Z,7.90
2018-04-27T06:00:09.814Z,8.10
2018-04-27T06:02:38.086Z,8.20
2018-04-27T06:05:06.414Z,8.30
2018-04-27T06:07:33.981Z,8.30
2018-04-27T06:10:01.607Z,8.30
2018-04-27T06:12:29.062Z,8.40
2018-04-27T06:14:56.618Z,8.40
2018-04-27T06:17:24.141Z,8.60
2018-04-27T06:19:51.649Z,8.70
2018-04-27T06:22:19.193Z,8.80
2018-04-27T06:24:46.700Z,8.80
2018-04-27T06:27:14.236Z,8.90
2018-04-27T06:29:41.785Z,9.00
2018-04-27T06:32:09.290Z,9.20
2018-04-27T06:34:36.821Z,9.40
2018-04-27T06:37:05.097Z,9.80
2018-04-27T06:39:32.601Z,9.80
2018-04-27T06:42:00.897Z,9.80
2018-04-27T06:44:29.161Z,9.90
2018-04-27T06:46:57.447Z,10.00
2018-04-27T06:49:25.757Z,10.10
2018-04-27T06:51:53.292Z,10.10
2018-04-27T06:54:20.807Z,10.20
2018-04-27T06:56:48.337Z,10.30
2018-04-27T06:59:15.889Z,10.40
2018-04-27T07:01:44.185Z,10.60
2018-04-27T07:04:11.700Z,10.50
2018-04-27T07:06:39.981Z,10.70
2018-04-27T07:09:07.497Z,10.70
2018-04-27T07:11:35.136Z,10.80
2018-04-27T07:14:02.567Z,10.80
2018-04-27T07:16:30.064Z,10.90
2018-04-27T07:18:57.587Z,10.90
2018-04-27T07:21:25.082Z,11.00
2018-04-27T07:23:52.604Z,11.10
2018-04-27T07:26:20.119Z,11.30
2018-04-27T07:28:47.661Z,11.40
2018-04-27T07:31:15.191Z,11.70
2018-04-27T07:33:42.715Z,11.80
2018-04-27T07:36:11.002Z,12.20
2018-04-27T07:38:38.529Z,12.20
2018-04-27T07:41:06.049Z,12.30
2018-04-27T07:43:34.349Z,12.70
2018-04-27T07:46:01.895Z,12.60
2018-04-27T07:48:29.396Z,12.60
2018-04-27T07:50:57.678Z,12.90
2018-04-27T07:53:25.935Z,13.10
2018-04-27T07:55:53.451Z,13.00
2018-04-27T07:58:21.003Z,13.20
2018-04-27T08:00:48.549Z,13.40
2018-04-27T08:03:16.968Z,13.60
2018-04-27T08:05:44.476Z,13.70
2018-04-27T08:08:12.775Z,13.70
2018-04-27T08:10:40.279Z,13.70
2018-04-27T08:13:07.825Z,13.90
2018-04-27T08:15:35.325Z,14.10
2018-04-27T08:18:02.895Z,14.10
2018-04-27T08:20:31.170Z,14.30
2018-04-27T08:23:00.569Z,14.30
2018-04-27T08:25:37.827Z,14.40
2018-04-27T08:28:05.352Z,14.40
2018-04-27T08:30:32.898Z,14.60
2018-04-27T08:33:00.409Z,14.80
2018-04-27T08:35:27.935Z,14.90
2018-04-27T08:37:55.501Z,15.10
2018-04-27T08:40:22.996Z,15.10
2018-04-27T08:42:51.260Z,15.40
2018-04-27T08:45:18.797Z,15.40
2018-04-27T08:47:46.320Z,15.50
2018-04-27T08:50:13.830Z,15.60
2018-04-27T08:52:41.374Z,15.60
2018-04-27T08:55:08.889Z,15.80
2018-04-27T08:57:36.394Z,15.90
2018-04-27T09:00:03.926Z,16.10
2018-04-27T09:02:31.435Z,16.20
2018-04-27T09:04:59.744Z,16.30
2018-04-27T09:07:27.258Z,16.20
2018-04-27T09:09:54.781Z,16.40
2018-04-27T09:12:22.274Z,16.60
2018-04-27T09:14:49.825Z,16.70
2018-04-27T09:17:17.333Z,16.80
2018-04-27T09:19:44.844Z,16.70
2018-04-27T09:22:12.351Z,16.90
2018-04-27T09:24:39.910Z,16.90
2018-04-27T09:27:07.419Z,17.00
2018-04-27T09:29:34.953Z,17.20
2018-04-27T09:32:02.441Z,17.40
2018-04-27T09:34:29.964Z,17.50
2018-04-27T09:36:57.480Z,17.60
2018-04-27T09:39:25.782Z,17.60
2018-04-27T09:41:53.364Z,17.60
2018-04-27T09:44:20.858Z,17.80
2018-04-27T09:46:48.354Z,18.00
2018-04-27T09:49:15.863Z,18.00
2018-04-27T09:51:43.383Z,18.00
2018-04-27T09:54:10.898Z,17.70
2018-04-27T09:56:38.473Z,17.70
2018-04-27T09:59:06.787Z,17.90
2018-04-27T10:01:34.292Z,17.80
2018-04-27T10:04:02.599Z,18.40
2018-04-27T10:06:30.112Z,18.40
2018-04-27T10:08:57.611Z,18.50
2018-04-27T10:11:25.164Z,18.80
2018-04-27T10:13:52.721Z,18.50
2018-04-27T10:16:20.997Z,18.80
2018-04-27T10:18:49.313Z,18.70
2018-04-27T10:21:17.610Z,19.00
2018-04-27T10:23:45.154Z,19.00
2018-04-27T10:26:12.677Z,19.50
2018-04-27T10:28:40.949Z,19.90
2018-04-27T10:31:09.232Z,20.50
2018-04-27T10:33:36.738Z,20.50
2018-04-27T10:36:04.299Z,20.80
2018-04-27T10:38:31.812Z,20.70
2018-04-27T10:40:59.373Z,21.30
2018-04-27T10:43:26.889Z,21.80
2018-04-27T10:45:54.399Z,21.90
2018-04-27T10:48:21.934Z,22.20
2018-04-27T10:50:50.240Z,22.70
2018-04-27T10:53:17.765Z,22.70
2018-04-27T10:55:46.073Z,23.70
2018-04-27T10:58:13.589Z,23.60
2018-04-27T11:00:41.854Z,23.90
2018-04-27T11:03:09.379Z,23.90
2018-04-27T11:05:36.910Z,23.60
2018-04-27T11:08:04.419Z,23.70
2018-04-27T11:10:31.936Z,23.80
2018-04-27T11:12:59.445Z,24.40
2018-04-27T11:15:26.958Z,23.80
2018-04-27T11:17:54.466Z,23.60
2018-04-27T11:20:22.000Z,23.20
2018-04-27T11:22:49.510Z,23.80
2018-04-27T11:25:17.787Z,24.50
2018-04-27T11:27:45.292Z,24.50
2018-04-27T11:30:12.829Z,24.50
2018-04-27T11:32:40.356Z,25.20
2018-04-27T11:35:08.679Z,25.20
2018-04-27T11:37:36.238Z,25.20
2018-04-27T11:40:03.761Z,25.60
2018-04-27T11:42:31.301Z,25.40
2018-04-27T11:44:59.591Z,25.80
2018-04-27T11:47:27.894Z,25.80
2018-04-27T11:49:55.426Z,25.70
2018-04-27T11:52:23.732Z,25.50
2018-04-27T11:54:51.239Z,25.50
2018-04-27T11:57:18.755Z,25.40
2018-04-27T11:59:46.270Z,25.90
2018-04-27T12:02:14.559Z,26.00
2018-04-27T12:04:42.865Z,25.10
2018-04-27T12:07:10.358Z,25.10
2018-04-27T12:09:37.926Z,24.90
2018-04-27T12:12:05.446Z,25.60
2018-04-27T12:14:32.982Z,25.80
2018-04-27T12:17:00.468Z,25.80
2018-04-27T12:19:28.113Z,25.90
2018-04-27T12:21:55.696Z,25.90
2018-04-27T12:24:23.244Z,25.80
2018-04-27T12:26:50.797Z,26.50
2018-04-27T12:29:18.319Z,26.50
2018-04-27T12:31:46.802Z,26.60
2018-04-27T12:34:14.207Z,26.60
2018-04-27T12:36:41.754Z,26.70
2018-04-27T12:39:09.240Z,26.90
2018-04-27T12:41:36.781Z,27.30
2018-04-27T12:44:04.295Z,26.90
2018-04-27T12:46:32.558Z,26.60
2018-04-27T12:49:00.857Z,26.90
2018-04-27T12:51:28.437Z,26.90
2018-04-27T12:53:55.971Z,26.50
2018-04-27T12:56:23.504Z,27.10
2018-04-27T12:58:51.025Z,27.30
2018-04-27T13:01:18.570Z,28.10
2018-04-27T13:03:46.121Z,28.00
2018-04-27T13:06:13.664Z,28.40
2018-04-27T13:08:41.952Z,28.00
2018-04-27T13:11:09.489Z,28.00
2018-04-27T13:13:37.788Z,28.40
2018-04-27T13:16:05.339Z,28.40
2018-04-27T13:18:32.932Z,28.80
2018-04-27T13:21:00.523Z,29.00
2018-04-27T13:23:28.239Z,28.30
2018-04-27T13:25:55.790Z,28.00
2018-04-27T13:28:23.305Z,27.90
2018-04-27T13:30:50.814Z,28.50
2018-04-27T13:33:18.347Z,29.20
2018-04-27T13:35:46.749Z,28.30
2018-04-27T13:38:14.288Z,28.30
2018-04-27T13:40:41.836Z,28.60
2018-04-27T13:43:10.102Z,29.30
2018-04-27T13:45:38.469Z,29.10
2018-04-27T13:48:05.987Z,29.10
2018-04-27T13:50:33.500Z,29.10
2018-04-27T13:53:00.992Z,29.30
2018-04-27T13:55:28.554Z,28.60
2018-04-27T13:57:56.062Z,29.00
2018-04-27T14:00:23.654Z,28.70
2018-04-27T14:02:52.019Z,27.70
2018-04-27T14:05:19.482Z,27.70
2018-04-27T14:07:47.777Z,28.60
2018-04-27T14:10:15.302Z,28.50
2018-04-27T14:12:42.852Z,27.90
2018-04-27T14:15:10.337Z,28.00
2018-04-27T14:17:38.607Z,28.10
2018-04-27T14:20:07.091Z,28.50
2018-04-27T14:22:34.575Z,28.50
2018-04-27T14:25:02.089Z,28.30
2018-04-27T14:27:29.641Z,28.20
2018-04-27T14:29:57.179Z,28.40
2018-04-27T14:32:24.750Z,28.10
2018-04-27T14:34:52.363Z,27.90
2018-04-27T14:37:19.882Z,27.50
2018-04-27T14:39:47.373Z,27.00
2018-04-27T14:42:15.656Z,26.40
2018-04-27T14:44:43.251Z,26.30
2018-04-27T14:47:10.794Z,26.50
2018-04-27T14:49:38.333Z,26.60
2018-04-27T14:52:06.625Z,27.30
2018-04-27T14:54:34.139Z,27.30
2018-04-27T14:57:01.669Z,28.20
2018-04-27T14:59:29.185Z,27.90
2018-04-27T15:01:57.451Z,28.40
2018-04-27T15:04:25.743Z,28.40
2018-04-27T15:06:53.277Z,28.40
2018-04-27T15:09:21.857Z,27.60
2018-04-27T15:11:51.241Z,27.50
2018-04-27T15:14:18.795Z,27.40
2018-04-27T15:16:46.340Z,27.70
2018-04-27T15:19:13.849Z,27.50
2018-04-27T15:21:42.148Z,26.60
2018-04-27T15:24:09.715Z,26.60
2018-04-27T15:26:37.966Z,26.80
2018-04-27T15:29:06.254Z,26.60
2018-04-27T15:31:33.753Z,26.60
2018-04-27T15:34:01.302Z,26.60
2018-04-27T15:36:28.814Z,25.80
2018-04-27T15:38:57.117Z,24.00
2018-04-27T15:41:24.645Z,23.90
2018-04-27T15:43:52.924Z,23.50
2018-04-27T15:46:21.212Z,23.30
2018-04-27T15:48:48.767Z,23.30
2018-04-27T15:51:17.060Z,23.00
2018-04-27T15:53:44.564Z,23.00
2018-04-27T15:56:12.069Z,22.70
2018-04-27T15:58:39.586Z,22.70
2018-04-27T16:01:07.133Z,22.50
2018-04-27T16:03:34.631Z,22.50
2018-04-27T16:06:02.153Z,22.20
2018-04-27T16:08:29.657Z,22.20
2018-04-27T16:10:57.170Z,22.10
2018-04-27T16:16:29.136Z,21.90
2018-04-27T16:18:59.305Z,21.80
2018-04-27T16:21:27.598Z,21.60
2018-04-27T16:23:55.111Z,21.60
2018-04-27T16:26:26.401Z,21.60
2018-04-27T16:28:54.735Z,21.60
2018-04-27T16:31:22.220Z,21.60
2018-04-27T16:33:51.311Z,21.50
2018-04-27T16:36:19.574Z,21.50
2018-04-27T16:38:47.105Z,21.40
2018-04-27T16:41:14.609Z,21.40
2018-04-27T16:43:42.878Z,21.30
2018-04-27T16:46:11.181Z,21.30
2018-04-27T16:48:38.695Z,21.30
2018-04-27T16:51:06.224Z,21.50
2018-04-27T16:53:33.724Z,21.60
2018-04-27T16:56:01.263Z,21.40
2018-04-27T16:58:28.836Z,21.20
2018-04-27T17:00:56.353Z,21.40
2018-04-27T17:03:23.854Z,21.40
2018-04-27T17:05:51.402Z,21.60
2018-04-27T17:08:18.906Z,21.50
2018-04-27T17:10:47.184Z,22.20
2018-04-27T17:13:14.733Z,22.20
2018-04-27T17:15:43.034Z,23.70
2018-04-27T17:18:10.588Z,23.70
2018-04-27T17:20:38.137Z,24.30
2018-04-27T17:23:05.664Z,24.10
2018-04-27T17:25:33.158Z,24.00
2018-04-27T17:28:00.704Z,23.80
2018-04-27T17:30:28.980Z,24.10
2018-04-27T17:32:57.258Z,24.20
2018-04-27T17:35:25.622Z,24.50
2018-04-27T17:37:53.329Z,24.50
2018-04-27T17:40:21.844Z,24.40
2018-04-27T17:42:49.337Z,24.30
2018-04-27T17:45:17.617Z,24.20
2018-04-27T17:47:45.965Z,23.90
2018-04-27T17:50:13.690Z,23.80
2018-04-27T17:52:41.250Z,24.00
2018-04-27T17:55:08.814Z,23.90
2018-04-27T17:57:36.351Z,23.70
2018-04-27T18:00:04.050Z,23.40
2018-04-27T18:02:31.644Z,23.20
2018-04-27T18:04:59.945Z,23.00
2018-04-27T18:07:28.338Z,22.80
2018-04-27T18:09:56.606Z,22.60
2018-04-27T18:12:24.221Z,22.60
2018-04-27T18:14:52.634Z,22.30
2018-04-27T18:17:20.222Z,22.30
2018-04-27T18:19:47.725Z,22.10
2018-04-27T18:22:15.230Z,21.90
2018-04-27T18:24:42.999Z,21.80
2018-04-27T18:27:10.775Z,21.70
2018-04-27T18:29:39.313Z,21.20
2018-04-27T18:32:08.388Z,21.00
2018-04-27T18:34:36.525Z,21.00
2018-04-27T18:37:04.714Z,20.80
2018-04-27T18:39:32.295Z,20.70
2018-04-27T18:41:59.849Z,20.50
2018-04-27T18:44:27.638Z,20.40
2018-04-27T18:46:56.546Z,20.10
2018-04-27T18:49:24.909Z,20.00
2018-04-27T18:51:53.714Z,19.70
2018-04-27T18:54:22.104Z,19.60
2018-04-27T18:56:49.731Z,19.60
2018-04-27T18:59:17.871Z,19.50
2018-04-27T19:01:45.817Z,19.50
2018-04-27T19:04:15.354Z,19.20
2018-04-27T19:06:44.568Z,18.90
2018-04-27T19:09:12.172Z,18.90
2018-04-27T19:11:41.377Z,18.60
2018-04-27T19:14:08.982Z,18.50
2018-04-27T19:16:36.566Z,18.20
2018-04-27T19:19:05.126Z,18.00
2018-04-27T19:21:32.821Z,17.90
2018-04-27T19:24:00.342Z,18.00
2018-04-27T19:26:28.054Z,17.90
2018-04-27T19:28:55.588Z,17.90
2018-04-27T19:31:23.921Z,18.00
2018-04-27T19:33:51.496Z,18.00
2018-04-27T19:36:19.447Z,18.10
2018-04-27T19:38:47.160Z,18.20
2018-04-27T19:41:14.716Z,18.20
2018-04-27T19:43:43.057Z,18.20
2018-04-27T19:46:10.550Z,18.20
2018-04-27T19:48:39.035Z,18.20
2018-04-27T19:51:07.349Z,18.30
2018-04-27T19:53:34.882Z,18.30
2018-04-27T19:56:02.449Z,18.40
2018-04-27T19:58:30.027Z,18.40
2018-04-27T20:00:57.744Z,18.40
2018-04-27T20:03:25.306Z,18.40
2018-04-27T20:05:53.612Z,18.40
2018-04-27T20:08:23.135Z,18.40
2018-04-27T20:10:50.792Z,18.40
2018-04-27T20:13:20.106Z,18.40
2018-04-27T20:15:48.699Z,18.40
2018-04-27T20:18:16.359Z,18.40
2018-04-27T20:20:43.871Z,18.50
2018-04-27T20:23:12.131Z,18.50
2018-04-27T20:25:41.213Z,18.50
2018-04-27T20:28:10.682Z,18.40
2018-04-27T20:30:41.027Z,18.50
2018-04-27T20:33:12.165Z,18.40
2018-04-27T20:35:39.860Z,18.30
2018-04-27T20:38:19.073Z,18.30
2018-04-27T20:40:46.621Z,18.20
2018-04-27T20:43:15.814Z,18.20
2018-04-27T20:45:43.340Z,18.10
2018-04-27T20:48:14.422Z,18.00
2018-04-27T20:50:51.171Z,17.90
2018-04-27T20:53:18.886Z,17.90
2018-04-27T20:55:47.251Z,17.70
2018-04-27T20:58:15.558Z,17.70
2018-04-27T21:00:43.863Z,17.60
2018-04-27T21:03:11.385Z,17.60
2018-04-27T21:05:39.773Z,17.60
2018-04-27T21:08:08.128Z,17.40
2018-04-27T21:10:36.401Z,17.30
2018-04-27T21:13:04.659Z,17.30
2018-04-27T21:15:32.164Z,17.20
2018-04-27T21:18:00.479Z,17.10
2018-04-27T21:20:28.099Z,17.10
2018-04-27T21:22:56.386Z,17.00
2018-04-27T21:25:33.502Z,16.90
2018-04-27T21:28:01.032Z,17.00
2018-04-27T21:30:28.703Z,17.10
2018-04-27T21:33:08.250Z,17.00
2018-04-27T21:35:42.851Z,17.00
2018-04-27T21:38:32.718Z,16.90
2018-04-27T21:41:01.017Z,17.00
2018-04-27T21:43:28.562Z,16.90
2018-04-27T21:45:56.826Z,17.00
2018-04-27T21:48:25.078Z,17.00
2018-04-27T21:50:52.607Z,17.00
2018-04-27T21:53:20.923Z,17.10
2018-04-27T21:55:48.422Z,17.00
2018-04-27T21:58:22.728Z,17.10
2018-04-27T22:00:51.010Z,17.00
2018-04-27T22:03:20.225Z,17.00
2018-04-27T22:08:50.192Z,16.80
2018-04-27T22:11:24.284Z,16.60
2018-04-27T22:13:52.608Z,16.60
2018-04-27T22:16:22.875Z,16.50
2018-04-27T22:18:50.438Z,16.40
2018-04-27T22:21:17.952Z,16.40
2018-04-27T22:23:45.456Z,16.40
2018-04-27T22:26:14.650Z,16.30
2018-04-27T22:28:43.021Z,16.30
2018-04-27T22:31:10.562Z,16.20
2018-04-27T22:33:40.696Z,16.20
2018-04-27T22:36:15.550Z,16.10
2018-04-27T22:38:45.773Z,16.10
2018-04-27T22:41:13.296Z,16.10
2018-04-27T22:43:42.219Z,16.10
2018-04-27T22:46:14.317Z,16.10
2018-04-27T22:48:52.541Z,16.00
2018-04-27T22:51:22.003Z,16.00
2018-04-27T22:54:07.920Z,15.90
2018-04-27T22:56:54.085Z,15.90
2018-04-27T22:59:34.499Z,15.90
2018-04-27T23:02:12.433Z,15.90
2018-04-27T23:04:39.966Z,15.80
2018-04-27T23:07:08.237Z,15.80
2018-04-27T23:09:36.556Z,15.80
2018-04-27T23:12:04.900Z,15.80
2018-04-27T23:14:33.890Z,15.80
2018-04-27T23:17:03.733Z,15.70
2018-04-27T23:19:37.897Z,15.70
2018-04-27T23:22:25.968Z,15.80
2018-04-27T23:25:05.660Z,15.70
2018-04-27T23:27:33.923Z,15.60
2018-04-27T23:30:01.449Z,15.60
2018-04-27T23:32:28.979Z,15.60
2018-04-27T23:34:56.500Z,15.50
2018-04-27T23:37:24.038Z,15.50
2018-04-27T23:39:51.558Z,15.60
2018-04-27T23:42:19.880Z,15.60
2018-04-27T23:44:47.400Z,15.50
2018-04-27T23:47:15.692Z,15.40
2018-04-27T23:49:43.961Z,15.30
2018-04-27T23:52:12.257Z,15.20
2018-04-27T23:54:39.770Z,15.20
2018-04-27T23:57:07.310Z,15.10
2018-04-27T23:59:35.644Z,14.90
